Time;durP1;ratioP1;P1;durP2;ratioP2;P2;SDS_P1;SDS_P2;PMS_P1;PMS_P2;Temp;Humidity;BMP_temperature;BMP_pressure;BME280_temperature;BME280_humidity;BME280_pressure;Samples;Min_cycle;Max_cycle;Signal;HPM_P1;HPM_P2
2022/10/14 00:02:03;;;;;;;7.18;3.90;;;14.00;99.90;;;14.09;100.00;101018.41;5203609;28;20371;-72
2022/10/14 00:04:35;;;;;;;7.32;3.53;;;14.00;99.90;;;14.09;100.00;101018.41;5218563;28;20418;-72
2022/10/14 00:07:07;;;;;;;6.55;3.15;;;14.00;99.90;;;14.08;100.00;101021.84;5203842;28;20045;-73
2022/10/14 00:09:41;;;;;;;7.35;3.70;;;14.00;99.90;;;14.08;100.00;101021.84;5202840;28;20041;-72
2022/10/14 00:12:15;;;;;;;6.30;3.15;;;14.00;99.90;;;14.08;100.00;101017.50;5206284;28;20052;-72
2022/10/14 00:14:47;;;;;;;5.47;3.00;;;13.90;99.90;;;14.08;100.00;101011.34;5207979;28;20049;-72
2022/10/14 00:17:21;;;;;;;7.13;3.53;;;14.00;99.90;;;14.09;100.00;101013.16;5207391;28;20042;-72
2022/10/14 00:19:55;;;;;;;7.65;2.90;;;14.00;99.90;;;14.08;100.00;101006.09;5206964;28;20039;-72
2022/10/14 00:22:27;;;;;;;7.35;3.50;;;14.00;99.90;;;14.08;100.00;101009.66;5207503;28;20044;-72
2022/10/14 00:24:59;;;;;;;6.05;2.92;;;14.00;99.90;;;14.09;100.00;100998.31;5205878;28;20058;-72
2022/10/14 00:27:31;;;;;;;5.28;3.10;;;14.00;99.90;;;14.09;100.00;101007.91;5207643;28;20402;-72
2022/10/14 00:30:08;;;;;;;7.32;2.92;;;14.00;99.90;;;14.09;100.00;101008.78;5207211;28;20037;-72
2022/10/14 00:32:41;;;;;;;7.13;3.05;;;14.00;99.90;;;14.09;100.00;101002.66;5206938;28;20049;-72
2022/10/14 00:35:14;;;;;;;5.95;3.17;;;13.90;99.90;;;14.08;100.00;100993.00;5207178;28;20084;-72
2022/10/14 00:37:46;;;;;;;8.32;4.07;;;14.00;99.90;;;14.07;100.00;101005.22;5207030;28;20406;-72
2022/10/14 00:40:19;;;;;;;7.47;4.03;;;14.00;99.90;;;14.02;100.00;100999.00;5206705;28;20096;-72
2022/10/14 00:42:51;;;;;;;6.03;3.60;;;13.90;99.90;;;14.03;100.00;101003.41;5207226;28;20049;-72
2022/10/14 00:45:24;;;;;;;7.53;3.67;;;13.90;99.90;;;14.03;100.00;100995.53;5207226;28;20405;-72
2022/10/14 00:48:01;;;;;;;9.38;4.70;;;13.90;99.90;;;14.04;100.00;100993.81;5206685;28;20451;-73
2022/10/14 00:50:33;;;;;;;7.72;3.63;;;13.90;99.90;;;14.04;100.00;100999.03;5206365;28;20053;-72
2022/10/14 00:53:05;;;;;;;6.95;3.10;;;13.90;99.90;;;14.03;100.00;100997.28;5206965;28;20045;-72
2022/10/14 00:55:39;;;;;;;5.88;3.30;;;13.90;99.90;;;14.05;100.00;101000.81;5206888;28;20107;-72
2022/10/14 00:58:16;;;;;;;5.63;3.08;;;13.90;99.90;;;14.06;100.00;100998.22;5206776;28;20044;-72
2022/10/14 01:00:48;;;;;;;4.70;2.72;;;13.90;99.90;;;14.08;100.00;101001.78;5204626;28;20155;-72
2022/10/14 01:03:24;;;;;;;5.28;2.88;;;13.90;99.90;;;14.09;100.00;100998.31;5205020;28;20053;-72
2022/10/14 01:06:07;;;;;;;4.10;2.42;;;14.00;99.90;;;14.11;100.00;100996.59;5205233;28;20517;-72
2022/10/14 01:08:49;;;;;;;5.30;2.63;;;14.00;99.90;;;14.11;100.00;100995.72;5206698;28;20052;-72
2022/10/14 01:11:34;;;;;;;8.18;3.50;;;14.00;99.90;;;14.10;100.00;100989.59;5206095;28;20042;-72
2022/10/14 01:14:18;;;;;;;6.70;3.30;;;14.00;99.90;;;14.09;100.00;100992.19;5204953;28;20115;-71
2022/10/14 01:16:59;;;;;;;6.40;3.22;;;14.00;99.90;;;14.06;100.00;100984.22;5226735;28;20048;-71
2022/10/14 01:20:15;;;;;;;5.43;3.22;;;14.00;99.90;;;14.04;100.00;100983.31;5226708;28;20408;-72
2022/10/14 01:23:02;;;;;;;5.68;3.03;;;14.00;99.90;;;14.02;100.00;100985.91;5225853;28;20049;-71
2022/10/14 01:25:43;;;;;;;6.40;3.38;;;13.90;99.90;;;14.01;100.00;100984.09;5226580;28;20044;-72
2022/10/14 01:28:22;;;;;;;;;;;13.90;99.90;;;14.04;100.00;100983.31;5227476;28;20068;-72
2022/10/14 01:31:01;;;;;;;5.38;2.88;;;13.90;99.90;;;14.03;100.00;100977.19;5224633;28;19948;-72
2022/10/14 01:33:37;;;;;;;6.15;3.03;;;13.90;99.90;;;14.02;100.00;100975.44;5225277;28;20067;-71
2022/10/14 01:36:17;;;;;;;6.15;3.38;;;13.90;99.90;;;14.02;100.00;100974.53;5226249;28;20390;-74
2022/10/14 01:38:56;;;;;;;5.75;3.03;;;13.90;99.90;;;14.02;100.00;100964.06;5225385;28;20045;-71
2022/10/14 01:41:32;;;;;;;7.25;3.25;;;13.90;99.90;;;14.02;100.00;100964.06;5224325;28;20148;-71
2022/10/14 01:44:11;;;;;;;7.55;4.00;;;13.90;99.90;;;14.00;100.00;100958.75;5225384;28;20443;-71
2022/10/14 01:46:52;;;;;;;6.75;3.60;;;13.90;99.90;;;13.99;100.00;100949.13;5224841;28;20049;-71
2022/10/14 01:49:34;;;;;;;6.65;3.50;;;13.90;99.90;;;14.01;100.00;100941.28;5226366;28;20037;-71
2022/10/14 01:52:11;;;;;;;6.22;3.55;;;13.90;99.90;;;14.00;100.00;100935.16;5224357;28;20041;-72
2022/10/14 01:54:49;;;;;;;7.40;3.50;;;13.90;99.90;;;13.98;100.00;100933.38;5241760;28;20374;-71
2022/10/14 01:57:27;;;;;;;6.85;3.30;;;13.90;99.90;;;13.97;100.00;100929.88;5241367;28;20051;-71
2022/10/14 02:00:00;;;;;;;5.43;2.95;;;13.90;99.90;;;14.01;100.00;100922.94;5226013;28;20045;-72
2022/10/14 02:02:36;;;;;;;5.13;2.75;;;13.90;99.90;;;14.05;100.00;100922.19;5224483;28;20049;-72
2022/10/14 02:05:19;;;;;;;4.97;3.17;;;13.90;99.90;;;14.07;100.00;100917.84;5224705;28;20049;-72
2022/10/14 02:08:00;;;;;;;7.53;3.78;;;13.90;99.90;;;14.03;100.00;100918.66;5224733;28;20532;-72
2022/10/14 02:10:53;;;;;;;6.88;3.25;;;13.90;99.90;;;14.02;100.00;100919.50;5225566;28;20044;-72
2022/10/14 02:13:39;;;;;;;6.30;2.83;;;13.90;99.90;;;14.04;100.00;100909.94;5227542;28;20037;-72
2022/10/14 02:16:21;;;;;;;6.13;2.78;;;13.90;99.90;;;14.06;100.00;100914.34;5225951;28;20098;-72
2022/10/14 02:19:03;;;;;;;8.65;3.33;;;14.00;99.90;;;14.06;100.00;100911.72;5226400;28;20037;-73
2022/10/14 02:21:42;;;;;;;6.57;2.90;;;14.00;99.90;;;14.09;100.00;100913.53;5226420;28;20041;-72
2022/10/14 02:24:19;;;;;;;5.00;2.78;;;14.00;99.90;;;14.09;100.00;100906.56;5225781;28;20084;-72
2022/10/14 02:26:55;;;;;;;6.50;2.72;;;14.00;99.90;;;14.12;100.00;100897.88;5225753;28;20045;-71
2022/10/14 02:29:30;;;;;;;5.82;2.65;;;14.00;99.90;;;14.12;100.00;100897.88;5225983;28;20191;-72
2022/10/14 02:32:05;;;;;;;6.32;3.00;;;14.00;99.90;;;14.12;100.00;100888.28;5226219;28;20051;-72
2022/10/14 02:34:40;;;;;;;6.25;3.53;;;14.00;99.90;;;14.13;100.00;100881.28;5225743;28;20390;-72
2022/10/14 02:37:17;;;;;;;5.18;3.42;;;14.00;99.90;;;14.12;100.00;100888.28;5223933;28;20322;-71
2022/10/14 02:39:58;;;;;;;4.72;2.50;;;14.00;99.90;;;14.14;100.00;100896.16;5225012;28;20040;-72
2022/10/14 02:42:30;;;;;;;3.92;2.50;;;14.10;99.90;;;14.15;100.00;100895.34;5223736;28;20041;-72
2022/10/14 02:45:02;;;;;;;4.28;2.40;;;14.00;99.90;;;14.17;100.00;100896.25;5223855;28;20059;-71
2022/10/14 02:47:34;;;;;;;4.28;2.42;;;14.00;99.90;;;14.18;100.00;100891.88;5223805;28;20068;-72
2022/10/14 02:50:10;;;;;;;5.00;2.67;;;14.10;99.90;;;14.18;100.00;100887.53;5223462;28;20102;-71
2022/10/14 02:52:42;;;;;;;5.22;2.55;;;14.10;99.90;;;14.19;100.00;100878.78;5223551;28;20059;-72
2022/10/14 02:55:14;;;;;;;4.68;2.25;;;14.10;99.90;;;14.21;100.00;100887.56;5225298;28;20116;-71
2022/10/14 02:57:46;;;;;;;4.28;2.30;;;14.10;99.90;;;14.21;100.00;100877.09;5224815;28;20040;-71
2022/10/14 03:00:19;;;;;;;3.90;2.30;;;14.10;99.90;;;14.22;100.00;100878.00;5223181;28;20059;-71
2022/10/14 03:03:01;;;;;;;;;;;;;;;;;;;;;
2022/10/14 03:05:34;;;;;;;4.10;2.33;;;14.10;99.90;;;14.23;100.00;100877.13;5236902;28;20052;-71
2022/10/14 03:08:09;;;;;;;4.95;2.15;;;14.10;99.90;;;14.23;100.00;100875.41;5245061;28;20035;-70
2022/10/14 03:10:47;;;;;;;5.40;2.33;;;14.10;99.90;;;14.24;100.00;100871.91;5243779;28;20056;-70
2022/10/14 03:13:20;;;;;;;4.72;2.53;;;14.10;99.90;;;14.24;100.00;100871.91;5223107;28;20072;-70
2022/10/14 03:15:53;;;;;;;6.25;3.30;;;14.10;99.90;;;14.23;100.00;100872.78;5224336;28;20408;-70
2022/10/14 03:18:25;;;;;;;4.75;2.90;;;14.10;99.90;;;14.23;100.00;100870.16;5223003;28;20405;-70
2022/10/14 03:21:05;;;;;;;6.30;3.13;;;14.10;99.90;;;14.23;100.00;100870.16;5223114;28;20041;-70
2022/10/14 03:23:43;;;;;;;7.03;3.38;;;14.10;99.90;;;14.22;100.00;100873.63;5223339;28;20057;-70
2022/10/14 03:26:15;;;;;;;4.30;2.47;;;14.10;99.90;;;14.21;100.00;100871.84;5223148;28;20055;-70
2022/10/14 03:28:51;;;;;;;4.88;2.70;;;14.10;99.90;;;14.23;100.00;100877.13;5222911;28;20051;-70
2022/10/14 03:31:31;;;;;;;4.95;2.70;;;14.10;99.90;;;14.23;100.00;100864.91;5224147;28;20073;-70
2022/10/14 03:34:23;;;;;;;5.57;3.03;;;14.10;99.90;;;14.19;100.00;100868.31;5222583;28;20057;-70
2022/10/14 03:37:06;;;;;;;4.88;3.25;;;14.10;99.90;;;14.21;100.00;100869.22;5219076;28;20509;-70
2022/10/14 03:39:43;;;;;;;4.45;2.58;;;14.10;99.90;;;14.19;100.00;100863.06;5203129;28;20063;-70
2022/10/14 03:42:17;;;;;;;4.47;2.53;;;14.10;99.90;;;14.21;100.00;100865.72;5203373;28;20045;-70
2022/10/14 03:44:52;;;;;;;5.20;2.85;;;14.10;99.90;;;14.21;100.00;100865.72;5214424;28;20052;-70
2022/10/14 03:47:32;;;;;;;4.95;2.65;;;14.10;99.90;;;14.22;100.00;100868.41;5215040;28;20049;-71
2022/10/14 03:50:06;;;;;;;4.63;2.58;;;14.10;99.90;;;14.22;100.00;100863.16;5237225;28;20592;-70
2022/10/14 03:52:45;;;;;;;6.90;3.33;;;14.10;99.90;;;14.21;100.00;100861.34;5206992;28;20494;-70
2022/10/14 03:55:32;;;;;;;6.15;2.95;;;14.10;99.90;;;14.22;100.00;100857.91;5208301;28;20254;-71
2022/10/14 03:58:04;;;;;;;5.28;2.80;;;14.10;99.90;;;14.22;100.00;100857.03;5205963;28;20053;-70
2022/10/14 04:00:37;;;;;;;5.07;2.80;;;14.10;99.90;;;14.23;100.00;100857.03;5205887;28;20045;-70
2022/10/14 04:03:32;;;;;;;6.22;2.92;;;14.10;99.90;;;14.21;100.00;100845.63;5207023;28;20053;-70
2022/10/14 04:06:05;;;;;;;3.85;2.63;;;14.10;99.90;;;14.19;100.00;100852.59;5206420;28;20045;-71
2022/10/14 04:08:39;;;;;;;5.72;3.03;;;14.10;99.90;;;14.18;100.00;100840.34;5205721;28;20042;-71
2022/10/14 04:11:23;;;;;;;5.18;2.97;;;14.10;99.90;;;14.17;100.00;100846.44;5206002;28;20462;-71
2022/10/14 04:14:01;;;;;;;6.15;2.72;;;14.10;99.90;;;14.17;100.00;100849.06;5211956;28;20164;-71
2022/10/14 04:16:36;;;;;;;4.25;2.30;;;14.00;99.90;;;14.17;100.00;100848.16;5206184;28;20132;-70
2022/10/14 04:19:13;;;;;;;4.38;2.20;;;14.10;99.90;;;14.17;100.00;100841.19;5205565;28;20049;-70
2022/10/14 04:21:47;;;;;;;4.72;2.65;;;14.10;99.90;;;14.17;100.00;100843.81;5206959;28;20428;-70
2022/10/14 04:24:22;;;;;;;5.07;2.50;;;14.10;99.90;;;14.19;100.00;100852.59;5206001;28;20042;-70
2022/10/14 04:27:01;;;;;;;5.28;2.92;;;14.00;99.90;;;14.17;100.00;100841.19;5205956;28;20053;-70
2022/10/14 04:29:53;;;;;;;5.13;2.58;;;14.10;99.90;;;14.17;100.00;100843.81;5206134;28;20180;-70
2022/10/14 04:32:33;;;;;;;5.85;2.83;;;14.00;99.90;;;14.16;100.00;100836.81;5205980;28;20053;-70
2022/10/14 04:35:06;;;;;;;4.68;2.75;;;14.00;99.90;;;14.16;100.00;100836.81;5205747;28;20049;-70
2022/10/14 04:37:38;;;;;;;7.28;2.92;;;14.10;99.90;;;14.16;100.00;100836.81;5205952;28;20083;-70
2022/10/14 04:40:25;;;;;;;5.70;2.67;;;14.00;99.90;;;14.16;100.00;100841.16;5205195;28;20045;-70
2022/10/14 04:42:59;;;;;;;4.30;2.50;;;14.00;99.90;;;14.18;100.00;100840.34;5206771;28;20141;-70
2022/10/14 04:45:42;;;;;;;4.30;2.58;;;14.00;99.90;;;14.20;100.00;100838.63;5206581;28;20045;-70
2022/10/14 04:48:16;;;;;;;4.82;2.42;;;14.10;99.90;;;14.20;100.00;100829.88;5205433;28;20513;-70
2022/10/14 04:50:51;;;;;;;4.38;2.75;;;14.10;99.90;;;14.20;100.00;100838.63;5204814;28;20410;-70
2022/10/14 04:53:41;;;;;;;4.88;2.42;;;14.10;99.90;;;14.22;100.00;100834.31;5205368;28;20523;-70
2022/10/14 04:56:41;;;;;;;5.63;2.40;;;14.10;99.90;;;14.24;100.00;100827.34;5204145;28;20045;-70
2022/10/14 04:59:14;;;;;;;4.22;2.38;;;14.10;99.90;;;14.24;100.00;100818.59;5214426;28;20047;-70
2022/10/14 05:01:58;;;;;;;5.13;2.40;;;14.10;99.90;;;14.22;100.00;100815.97;5225557;28;20051;-70
2022/10/14 05:04:39;;;;;;;4.63;2.45;;;14.10;99.90;;;14.22;100.00;100821.19;5228024;28;20045;-71
2022/10/14 05:07:13;;;;;;;4.60;2.60;;;14.10;99.90;;;14.21;100.00;100816.78;5226592;28;20412;-71
2022/10/14 05:09:46;;;;;;;3.03;1.98;;;14.10;99.90;;;14.22;100.00;100815.97;5225431;28;20041;-71
2022/10/14 05:12:29;;;;;;;4.15;2.50;;;14.10;99.90;;;14.23;100.00;100817.72;5226513;28;20448;-72
2022/10/14 05:15:08;;;;;;;5.55;2.80;;;14.10;99.90;;;14.23;100.00;100807.25;5227485;28;20515;-71
2022/10/14 05:17:48;;;;;;;5.10;2.35;;;14.10;99.90;;;14.24;100.00;100814.25;5226461;28;20040;-71
2022/10/14 05:20:24;;;;;;;4.35;2.10;;;14.10;99.90;;;14.24;100.00;100806.38;5227085;28;20040;-71
2022/10/14 05:23:00;;;;;;;3.03;1.88;;;14.10;99.90;;;14.25;100.00;100805.53;5227907;28;20497;-71
2022/10/14 05:25:34;;;;;;;2.45;1.73;;;14.10;99.90;;;14.24;100.00;100798.50;5226028;28;20049;-71
2022/10/14 05:28:08;;;;;;;4.45;2.33;;;14.10;99.90;;;14.22;100.00;100792.38;5225418;28;20136;-71
2022/10/14 05:30:42;;;;;;;4.53;2.38;;;14.10;99.90;;;14.22;100.00;100799.34;5224934;28;20052;-71
2022/10/14 05:33:17;;;;;;;;;;;14.10;99.90;;;14.21;100.00;100798.44;5225999;28;20513;-70
2022/10/14 05:35:50;;;;;;;5.45;2.67;;;14.10;99.90;;;14.20;100.00;100793.16;5225070;28;19967;-69
2022/10/14 05:38:22;;;;;;;6.18;3.20;;;14.10;99.90;;;14.14;100.00;100788.69;5224973;28;20087;-69
2022/10/14 05:40:57;;;;;;;6.07;2.83;;;14.10;99.90;;;14.12;100.00;100777.28;5225001;28;20053;-69
2022/10/14 05:43:31;;;;;;;5.75;2.70;;;14.00;99.90;;;14.07;100.00;100778.94;5226359;28;20124;-70
2022/10/14 05:46:05;;;;;;;4.93;2.33;;;14.00;99.90;;;14.05;100.00;100781.53;5224081;28;20048;-69
2022/10/14 05:48:42;;;;;;;5.63;2.50;;;14.00;99.90;;;14.06;100.00;100788.53;5224608;28;20092;-69
2022/10/14 05:51:15;;;;;;;4.22;2.28;;;14.00;99.90;;;14.08;100.00;100791.16;5224422;28;20049;-69
2022/10/14 05:53:48;;;;;;;2.97;1.80;;;14.00;99.90;;;14.09;100.00;100782.47;5224975;28;20060;-69
2022/10/14 05:56:23;;;;;;;4.40;2.67;;;14.00;99.90;;;14.11;100.00;100786.91;5221604;28;20132;-69
2022/10/14 05:58:56;;;;;;;4.50;2.40;;;14.00;99.90;;;14.11;100.00;100786.00;5220166;28;20418;-69
2022/10/14 06:01:30;;;;;;;3.83;2.35;;;14.00;99.90;;;14.14;100.00;100786.06;5204887;28;20136;-69
2022/10/14 06:04:02;;;;;;;3.20;2.10;;;14.00;99.90;;;14.17;100.00;100788.75;5204201;28;20079;-69
2022/10/14 06:06:36;;;;;;;3.45;2.10;;;14.00;99.90;;;14.19;100.00;100786.16;5203905;28;20494;-69
2022/10/14 06:09:08;;;;;;;4.25;2.05;;;14.10;99.90;;;14.21;100.00;100795.81;5204817;28;20041;-70
2022/10/14 06:11:41;;;;;;;4.32;2.00;;;14.10;99.90;;;14.21;100.00;100793.19;5203489;28;20056;-69
2022/10/14 06:14:15;;;;;;;3.75;1.90;;;14.10;99.90;;;14.24;100.00;100792.38;5205286;28;20044;-69
2022/10/14 06:16:50;;;;;;;4.35;2.30;;;14.10;99.90;;;14.23;100.00;100781.00;5204051;28;20049;-70
2022/10/14 06:19:22;;;;;;;3.95;2.20;;;14.10;99.90;;;14.23;100.00;100774.88;5205199;28;20038;-69
2022/10/14 06:21:54;;;;;;;5.75;2.75;;;14.10;99.90;;;14.23;100.00;100781.00;5204781;28;20045;-69
2022/10/14 06:24:27;;;;;;;4.38;2.40;;;14.10;99.90;;;14.25;100.00;100779.28;5220318;28;20049;-70
2022/10/14 06:26:59;;;;;;;6.72;3.10;;;14.10;99.90;;;14.25;100.00;100779.28;5225565;28;20079;-70
2022/10/14 06:29:36;;;;;;;6.40;2.90;;;14.10;99.90;;;14.26;100.00;100780.19;5225640;28;20044;-69
2022/10/14 06:32:10;;;;;;;5.75;2.80;;;14.20;99.90;;;14.26;100.00;100785.41;5225176;28;20529;-70
2022/10/14 06:34:42;;;;;;;5.35;2.60;;;14.10;99.90;;;14.24;100.00;100779.28;5225344;28;20045;-69
2022/10/14 06:37:15;;;;;;;4.80;2.28;;;14.10;99.90;;;14.26;100.00;100778.44;5220513;28;20064;-69
2022/10/14 06:39:47;;;;;;;4.63;2.58;;;14.20;99.90;;;14.28;100.00;100773.22;5224281;28;20389;-69
2022/10/14 06:42:19;;;;;;;5.97;3.70;;;14.20;99.90;;;14.27;100.00;100776.69;5223750;28;20458;-57
2022/10/14 06:44:52;;;;;;;5.38;2.60;;;14.20;99.90;;;14.29;100.00;100777.63;5221335;28;20042;-57
2022/10/14 06:47:24;;;;;;;4.55;2.35;;;14.20;99.90;;;14.31;100.00;100779.41;5224559;28;20052;-58
2022/10/14 06:49:57;;;;;;;3.92;2.38;;;14.20;99.90;;;14.33;100.00;100775.06;5224685;28;20033;-58
2022/10/14 06:52:29;;;;;;;6.10;2.97;;;14.20;99.90;;;14.33;100.00;100767.22;5224722;28;20051;-56
2022/10/14 06:55:01;;;;;;;5.00;2.65;;;14.20;99.90;;;14.33;100.00;100772.47;5224906;28;20048;-58
2022/10/14 06:57:33;;;;;;;7.18;2.40;;;14.20;99.90;;;14.32;100.00;100770.69;5222411;28;20049;-57
2022/10/14 07:00:08;;;;;;;4.60;2.20;;;14.20;99.90;;;14.33;100.00;100767.22;5221057;28;20037;-58
2022/10/14 07:02:40;;;;;;;7.47;2.83;;;14.20;99.90;;;14.37;100.00;100769.06;5224370;28;20032;-57
2022/10/14 07:05:13;;;;;;;5.72;3.03;;;14.30;99.90;;;14.39;100.00;100762.09;5223361;28;20264;-57
2022/10/14 07:07:45;;;;;;;5.43;2.38;;;14.30;99.90;;;14.40;100.00;100758.59;5222527;28;20052;-57
2022/10/14 07:10:17;;;;;;;5.03;2.33;;;14.30;99.90;;;14.40;100.00;100765.59;5224445;28;20040;-57
2022/10/14 07:12:53;;;;;;;4.68;2.28;;;14.30;99.90;;;14.42;100.00;100765.66;5224400;28;20036;-58
2022/10/14 07:15:26;;;;;;;4.18;2.30;;;14.30;99.90;;;14.43;100.00;100762.16;5224578;28;20417;-57
2022/10/14 07:17:58;;;;;;;4.97;2.90;;;14.30;99.90;;;14.45;100.00;100765.69;5237013;28;20048;-58
2022/10/14 07:20:30;;;;;;;5.28;2.50;;;14.30;99.90;;;14.44;100.00;100769.16;5244487;28;20048;-57
2022/10/14 07:23:05;;;;;;;6.03;2.63;;;14.30;99.90;;;14.43;100.00;100755.19;5245398;28;20044;-57
2022/10/14 07:25:37;;;;;;;5.20;3.10;;;14.30;99.90;;;14.42;100.00;100756.03;5245708;28;20413;-58
2022/10/14 07:28:09;;;;;;;5.25;2.88;;;14.30;99.90;;;14.41;100.00;100754.28;5245489;28;20043;-57
2022/10/14 07:30:44;;;;;;;7.20;3.20;;;14.40;99.90;;;14.39;100.00;100750.72;5245181;28;20086;-58
2022/10/14 07:33:17;;;;;;;4.90;2.58;;;14.30;99.90;;;14.40;100.00;100753.34;5245348;28;20058;-57
2022/10/14 07:35:49;;;;;;;5.68;3.08;;;14.30;99.90;;;14.43;100.00;100755.19;5245685;28;20493;-56
2022/10/14 07:38:22;;;;;;;5.15;2.53;;;14.30;99.90;;;14.42;100.00;100749.91;5245415;28;20056;-57
2022/10/14 07:40:59;;;;;;;5.93;2.78;;;14.30;99.90;;;14.45;100.00;100755.19;5244972;28;20468;-57
2022/10/14 07:43:33;;;;;;;5.75;3.05;;;14.40;99.90;;;14.47;100.00;100753.50;5245117;28;20054;-57
2022/10/14 07:46:07;;;;;;;6.35;2.90;;;14.40;99.90;;;14.46;100.00;100756.97;5245595;28;20606;-57
2022/10/14 07:48:40;;;;;;;5.53;2.45;;;14.40;99.90;;;14.50;100.00;100758.81;5245204;28;20063;-57
2022/10/14 07:51:12;;;;;;;5.25;2.75;;;14.40;99.90;;;14.54;100.00;100752.75;5244994;28;20052;-58
2022/10/14 07:53:44;;;;;;;7.22;3.58;;;14.40;99.90;;;14.54;100.00;100756.28;5244979;28;20386;-58
2022/10/14 07:56:16;;;;;;;7.25;3.15;;;14.50;99.90;;;14.54;100.00;100744.88;5245245;28;20048;-57
2022/10/14 07:58:49;;;;;;;8.70;3.42;;;14.40;99.90;;;14.53;100.00;100748.38;5245014;28;20047;-57
2022/10/14 08:01:23;;;;;;;5.80;2.83;;;14.50;99.90;;;14.52;100.00;100750.13;5244738;28;20049;-57
2022/10/14 08:03:55;;;;;;;6.28;2.78;;;14.50;99.90;;;14.52;100.00;100744.00;5244955;28;20083;-58
2022/10/14 08:06:27;;;;;;;6.05;3.00;;;14.50;99.90;;;14.53;100.00;100745.75;5245149;28;20131;-58
2022/10/14 08:08:59;;;;;;;7.47;3.35;;;14.50;99.90;;;14.52;100.00;100741.38;5245256;28;20039;-57
2022/10/14 08:11:32;;;;;;;6.75;3.67;;;14.40;99.90;;;14.49;100.00;100741.31;5244727;28;20053;-56
2022/10/14 08:14:04;;;;;;;7.45;3.15;;;14.50;99.90;;;14.52;100.00;100736.13;5245197;28;20049;-58
2022/10/14 08:16:39;;;;;;;6.90;3.65;;;14.40;99.90;;;14.56;100.00;100737.97;5245101;28;20056;-57
2022/10/14 08:19:12;;;;;;;9.00;3.75;;;14.50;99.90;;;14.60;100.00;100739.75;5244979;28;20040;-58
2022/10/14 08:21:44;;;;;;;9.65;4.28;;;14.50;99.90;;;14.62;100.00;100738.06;5244609;28;20412;-57
2022/10/14 08:24:16;;;;;;;6.43;3.15;;;14.50;99.90;;;14.64;100.00;100731.09;5244556;28;20044;-58
2022/10/14 08:26:53;;;;;;;8.95;3.65;;;14.50;99.90;;;14.67;100.00;100741.66;5244976;28;20044;-58
2022/10/14 08:29:26;;;;;;;7.65;3.45;;;14.60;99.90;;;14.70;100.00;100730.31;5244715;28;20044;-57
2022/10/14 08:31:59;;;;;;;7.75;3.58;;;14.60;99.90;;;14.75;100.00;100733.91;5247153;28;20044;-58
2022/10/14 08:34:32;;;;;;;7.25;3.67;;;14.60;99.90;;;14.78;100.00;100740.06;5248593;28;20472;-58
2022/10/14 08:37:04;;;;;;;9.55;3.78;;;14.70;99.90;;;14.79;100.00;100736.59;5247240;28;20594;-58
2022/10/14 08:39:36;;;;;;;9.02;3.33;;;14.70;99.90;;;14.79;100.00;100726.09;5248026;28;20068;-58
2022/10/14 08:42:28;;;;;;;6.47;3.47;;;14.70;99.90;;;14.84;100.00;100724.44;5248311;28;20539;-57
2022/10/14 08:45:07;;;;;;;7.35;3.38;;;14.80;99.90;;;14.89;100.00;100720.16;5248818;28;20048;-58
2022/10/14 08:47:44;;;;;;;7.20;3.30;;;14.80;99.90;;;14.97;100.00;100717.63;5248644;28;20172;-57
2022/10/14 08:50:27;;;;;;;6.68;3.42;;;14.80;99.90;;;15.02;100.00;100718.59;5247980;28;20044;-58
2022/10/14 08:53:07;;;;;;;7.28;3.35;;;14.90;99.90;;;15.10;100.00;100710.84;5248145;28;20044;-58
2022/10/14 08:55:43;;;;;;;8.60;3.65;;;14.90;99.90;;;15.14;100.00;100707.41;5248361;28;20056;-58
2022/10/14 08:58:23;;;;;;;5.20;2.70;;;15.00;99.90;;;15.19;100.00;100708.34;5247975;28;20044;-57
2022/10/14 09:00:55;;;;;;;9.30;3.65;;;15.00;99.90;;;15.22;100.00;100695.28;5247620;28;20044;-57
2022/10/14 09:03:32;;;;;;;7.53;3.05;;;15.10;99.90;;;15.26;100.00;100686.59;5264036;22;20127;-56
2022/10/14 09:06:11;;;;;;;7.38;3.70;;;15.10;99.90;;;15.30;100.00;100677.88;5264539;28;20507;-57
2022/10/14 09:08:47;;;;;;;5.60;2.85;;;15.20;99.90;;;15.35;100.00;100686.69;5268762;28;20509;-57
2022/10/14 09:11:22;;;;;;;7.68;2.90;;;15.20;99.90;;;15.40;100.00;100695.53;5263820;28;20036;-56
2022/10/14 09:13:59;;;;;;;6.18;3.08;;;15.20;99.90;;;15.36;100.00;100685.84;5246414;28;20048;-55
2022/10/14 09:16:36;;;;;;;7.88;3.50;;;15.20;99.90;;;15.33;100.00;100683.19;5247995;28;20504;-58
2022/10/14 09:19:21;;;;;;;8.43;3.55;;;15.30;99.90;;;15.34;100.00;100679.69;5247766;28;20054;-55
2022/10/14 09:21:55;;;;;;;7.10;3.70;;;15.30;99.90;;;15.35;100.00;100677.94;5247325;28;20044;-55
2022/10/14 09:24:31;;;;;;;7.00;3.30;;;15.30;99.90;;;15.42;100.00;100674.53;5247517;28;20036;-58
2022/10/14 09:27:07;;;;;;;6.68;3.22;;;15.30;99.90;;;15.47;100.00;100673.72;5247873;28;20626;-57
2022/10/14 09:29:46;;;;;;;7.22;3.60;;;15.30;99.90;;;15.48;100.00;100675.50;5247608;28;20119;-56
2022/10/14 09:32:28;;;;;;;8.35;3.13;;;15.40;99.90;;;15.52;100.00;100683.41;5247495;28;20084;-55
2022/10/14 09:35:03;;;;;;;6.95;3.83;;;15.40;99.90;;;15.57;100.00;100677.34;5247485;28;20404;-57
2022/10/14 09:37:38;;;;;;;8.85;3.88;;;15.40;99.90;;;15.60;100.00;100681.78;5246751;28;20051;-56
2022/10/14 09:40:22;;;;;;;8.45;3.50;;;15.50;99.90;;;15.58;100.00;100676.47;5246216;28;20037;-58
2022/10/14 09:42:59;;;;;;;7.20;3.15;;;15.50;99.90;;;15.60;100.00;100674.78;5245950;28;20047;-60
2022/10/14 09:45:49;;;;;;;7.20;3.47;;;15.50;99.90;;;15.69;100.00;100666.16;5246993;28;20532;-58
2022/10/14 09:48:33;;;;;;;7.15;3.28;;;15.60;99.90;;;15.77;100.00;100664.47;5241039;28;20041;-58
2022/10/14 09:51:10;;;;;;;6.28;3.00;;;15.60;99.90;;;15.84;100.00;100658.44;5246045;28;20044;-57
2022/10/14 09:53:47;;;;;;;7.57;3.00;;;15.70;99.90;;;15.89;100.00;100669.88;5242031;28;20488;-55
2022/10/14 09:56:29;;;;;;;5.55;2.55;;;15.70;99.90;;;15.97;100.00;100669.97;5241746;28;20124;-57
2022/10/14 09:59:02;;;;;;;7.35;3.10;;;15.80;99.90;;;16.02;100.00;100669.16;5246563;28;20035;-59
2022/10/14 10:01:40;;;;;;;9.57;4.07;;;15.80;99.90;;;16.02;100.00;100660.38;5245825;28;20051;-55
2022/10/14 10:04:30;;;;;;;10.07;4.00;;;15.80;99.90;;;16.04;100.00;100658.69;5246028;28;20044;-55
2022/10/14 10:07:06;;;;;;;9.27;3.80;;;15.90;99.90;;;16.08;100.00;100649.94;5246384;28;20068;-56
2022/10/14 10:09:38;;;;;;;9.80;4.15;;;15.90;99.90;;;16.10;100.00;100642.94;5243943;28;20048;-55
2022/10/14 10:12:24;;;;;;;7.75;3.55;;;15.90;99.90;;;16.16;100.00;100652.63;5242532;28;20044;-56
2022/10/14 10:14:58;;;;;;;8.05;3.88;;;16.00;99.90;;;16.25;100.00;100650.09;5245744;28;20382;-56
2022/10/14 10:17:34;;;;;;;10.55;4.18;;;16.00;99.90;;;16.33;100.00;100644.91;5245678;28;20044;-57
2022/10/14 10:20:27;;;;;;;7.88;4.03;;;16.10;99.90;;;16.38;100.00;100644.09;5241241;28;20401;-56
2022/10/14 10:23:24;;;;;;;8.50;3.60;;;16.10;99.90;;;16.38;100.00;100641.47;5244354;28;20044;-56
2022/10/14 10:25:57;;;;;;;7.15;3.40;;;16.20;99.90;;;16.45;100.00;100638.00;5245916;28;20048;-57
2022/10/14 10:28:30;;;;;;;9.63;4.15;;;16.20;99.90;;;16.46;100.00;100642.41;5261397;28;20060;-56
2022/10/14 10:31:12;;;;;;;7.22;3.60;;;16.20;99.90;;;16.49;100.00;100639.78;5242715;28;20048;-57
2022/10/14 10:33:52;;;;;;;8.90;3.80;;;16.30;99.90;;;16.52;100.00;100634.56;5244703;28;20120;-58
2022/10/14 10:36:32;;;;;;;9.73;4.00;;;16.30;99.90;;;16.52;100.00;100631.03;5245096;28;20041;-55
2022/10/14 10:39:23;;;;;;;9.13;4.22;;;16.30;99.90;;;16.45;100.00;100627.50;5244866;28;20210;-57
2022/10/14 10:42:07;;;;;;;8.50;4.38;;;16.30;99.90;;;16.40;100.00;100626.56;5241851;28;20044;-55
2022/10/14 10:44:57;;;;;;;9.07;3.97;;;16.30;99.90;;;16.41;100.00;100622.19;5244902;28;20549;-57
2022/10/14 10:47:40;;;;;;;8.20;4.60;;;16.20;99.90;;;16.37;100.00;100620.41;5243282;28;20475;-55